createdAt,value
2023-04-03T00:00:35.893Z,2.53
2023-04-03T00:03:03.697Z,2.33
2023-04-03T00:05:32.804Z,3.97
2023-04-03T00:08:00.347Z,2.50
2023-04-03T00:10:27.856Z,2.50
2023-04-03T00:12:55.325Z,2.43
2023-04-03T00:15:22.861Z,2.40
2023-04-03T00:17:50.423Z,3.20
2023-04-03T00:20:17.963Z,3.93
2023-04-03T00:22:46.812Z,2.60
2023-04-03T00:25:14.288Z,5.50
2023-04-03T00:27:42.448Z,3.03
2023-04-03T00:30:12.000Z,4.10
2023-04-03T00:32:39.523Z,2.60
2023-04-03T00:35:07.499Z,2.70
2023-04-03T00:37:35.471Z,2.67
2023-04-03T00:40:05.096Z,2.80
2023-04-03T00:42:32.487Z,3.20
2023-04-03T00:45:18.805Z,2.70
2023-04-03T00:47:47.424Z,2.53
2023-04-03T00:50:15.152Z,2.60
2023-04-03T00:52:42.732Z,4.27
2023-04-03T00:55:12.021Z,3.50
2023-04-03T00:57:39.795Z,3.00
2023-04-03T01:00:10.352Z,2.70
2023-04-03T01:02:38.264Z,3.27
2023-04-03T01:05:07.155Z,3.23
2023-04-03T01:07:36.377Z,2.93
2023-04-03T01:10:05.749Z,3.60
2023-04-03T01:12:36.125Z,2.70
2023-04-03T01:15:06.872Z,2.60
2023-04-03T01:17:36.288Z,2.60
2023-04-03T01:20:18.720Z,2.70
2023-04-03T01:22:50.055Z,2.50
2023-04-03T01:25:17.622Z,3.10
2023-04-03T01:27:46.354Z,2.90
2023-04-03T01:30:15.492Z,2.83
2023-04-03T01:32:44.382Z,2.87
2023-04-03T01:35:11.991Z,2.70
2023-04-03T01:37:39.428Z,2.80
2023-04-03T01:40:07.927Z,2.90
2023-04-03T01:42:35.666Z,2.63
2023-04-03T01:45:03.101Z,2.83
2023-04-03T01:47:30.602Z,2.73
2023-04-03T01:49:59.500Z,3.03
2023-04-03T01:52:27.205Z,2.60
2023-04-03T01:54:54.777Z,2.70
2023-04-03T01:57:22.370Z,2.80
2023-04-03T01:59:49.984Z,2.70
2023-04-03T02:02:17.832Z,2.90
2023-04-03T02:04:45.283Z,2.80
2023-04-03T02:07:14.363Z,3.10
2023-04-03T02:09:41.927Z,2.50
2023-04-03T02:12:09.482Z,3.20
2023-04-03T02:14:36.945Z,3.10
2023-04-03T02:17:06.101Z,3.10
2023-04-03T02:19:33.873Z,2.50
2023-04-03T02:22:01.257Z,2.80
2023-04-03T02:24:30.093Z,2.90
2023-04-03T02:26:57.668Z,2.80
2023-04-03T02:29:25.290Z,3.20
2023-04-03T02:31:52.712Z,2.87
2023-04-03T02:34:20.333Z,2.90
2023-04-03T02:36:47.936Z,2.90
2023-04-03T02:39:15.777Z,3.30
2023-04-03T02:41:44.699Z,2.90
2023-04-03T02:44:13.398Z,3.43
2023-04-03T02:46:40.946Z,3.17
2023-04-03T02:49:08.459Z,3.03
2023-04-03T02:51:36.075Z,3.00
2023-04-03T02:54:03.565Z,3.27
2023-04-03T02:56:31.112Z,3.20
2023-04-03T02:58:59.892Z,3.40
2023-04-03T03:01:29.519Z,3.10
2023-04-03T03:03:57.043Z,3.10
2023-04-03T03:06:24.597Z,3.27
2023-04-03T03:08:52.304Z,3.13
2023-04-03T03:11:19.881Z,3.30
2023-04-03T03:13:47.746Z,3.67
2023-04-03T03:16:16.595Z,3.10
2023-04-03T03:18:44.122Z,3.07
2023-04-03T03:21:11.573Z,3.70
2023-04-03T03:23:39.120Z,2.97
2023-04-03T03:26:07.622Z,3.07
2023-04-03T03:28:35.492Z,3.20
2023-04-03T03:31:03.120Z,3.00
2023-04-03T03:33:32.031Z,3.20
2023-04-03T03:35:59.506Z,3.37
2023-04-03T03:38:27.120Z,3.50
2023-04-03T03:40:54.594Z,3.37
2023-04-03T03:43:22.639Z,3.37
2023-04-03T03:45:52.122Z,3.10
2023-04-03T03:48:19.613Z,3.20
2023-04-03T03:50:48.597Z,3.20
2023-04-03T03:53:16.584Z,3.03
2023-04-03T03:55:44.076Z,3.20
2023-04-03T03:58:11.541Z,3.17
2023-04-03T04:00:39.112Z,3.20
2023-04-03T04:03:06.746Z,2.90
2023-04-03T04:05:34.375Z,3.10
2023-04-03T04:08:03.321Z,2.97
2023-04-03T04:10:30.850Z,3.07
2023-04-03T04:12:58.881Z,2.87
2023-04-03T04:15:26.794Z,2.93
2023-04-03T04:17:54.391Z,2.93
2023-04-03T04:20:22.005Z,3.17
2023-04-03T04:22:49.498Z,3.20
2023-04-03T04:25:18.326Z,2.70
2023-04-03T04:27:45.746Z,3.13
2023-04-03T04:30:13.543Z,2.63
2023-04-03T04:32:40.930Z,2.97
2023-04-03T04:35:08.979Z,3.00
2023-04-03T04:37:36.428Z,2.73
2023-04-03T04:40:03.976Z,2.90
2023-04-03T04:42:32.738Z,2.80
2023-04-03T04:45:00.323Z,3.00
2023-04-03T04:47:27.814Z,2.63
2023-04-03T04:49:55.312Z,2.90
2023-04-03T04:52:22.799Z,2.83
2023-04-03T04:54:50.261Z,2.57
2023-04-03T04:57:18.216Z,2.73
2023-04-03T04:59:47.111Z,2.97
2023-04-03T05:02:14.580Z,2.33
2023-04-03T05:04:42.045Z,2.83
2023-04-03T05:07:09.736Z,2.90
2023-04-03T05:09:37.247Z,2.60
2023-04-03T05:12:05.293Z,2.50
2023-04-03T05:14:32.818Z,2.50
2023-04-03T05:17:01.718Z,2.50
2023-04-03T05:19:29.168Z,2.40
2023-04-03T05:21:56.779Z,2.20
2023-04-03T05:24:24.389Z,2.97
2023-04-03T05:26:51.805Z,2.17
2023-04-03T05:29:19.262Z,2.27
2023-04-03T05:31:46.768Z,2.20
2023-04-03T05:34:15.749Z,2.60
2023-04-03T05:36:43.879Z,2.30
2023-04-03T05:39:11.532Z,2.07
2023-04-03T05:41:39.000Z,2.33
2023-04-03T05:44:06.706Z,2.07
2023-04-03T05:46:34.149Z,2.20
2023-04-03T05:49:01.667Z,2.60
2023-04-03T05:51:35.595Z,2.43
2023-04-03T05:54:07.928Z,2.80
2023-04-03T05:56:35.513Z,2.30
2023-04-03T05:59:03.034Z,2.43
2023-04-03T06:01:30.437Z,2.30
2023-04-03T06:03:59.640Z,2.10
2023-04-03T06:06:27.504Z,2.03
2023-04-03T06:08:56.294Z,2.20
2023-04-03T06:11:23.729Z,1.87
2023-04-03T06:13:51.249Z,1.87
2023-04-03T06:16:19.252Z,1.90
2023-04-03T06:18:46.801Z,1.50
2023-04-03T06:21:14.212Z,1.70
2023-04-03T06:23:42.849Z,1.87
2023-04-03T06:26:11.674Z,2.10
2023-04-03T06:28:39.121Z,2.20
2023-04-03T06:31:06.741Z,1.90
2023-04-03T06:33:34.206Z,2.00
2023-04-03T06:36:02.353Z,2.20
2023-04-03T06:38:29.839Z,1.80
2023-04-03T06:40:57.876Z,1.93
2023-04-03T06:43:27.121Z,1.70
2023-04-03T06:45:54.746Z,1.80
2023-04-03T06:48:22.919Z,1.90
2023-04-03T06:50:50.528Z,1.87
2023-04-03T06:53:18.022Z,1.63
2023-04-03T06:55:46.054Z,1.70
2023-04-03T06:58:13.481Z,1.90
2023-04-03T07:00:45.502Z,1.43
2023-04-03T07:03:12.899Z,1.40
2023-04-03T07:05:40.683Z,1.40
2023-04-03T07:08:08.368Z,1.90
2023-04-03T07:10:35.728Z,1.47
2023-04-03T07:13:03.540Z,1.70
2023-04-03T07:15:31.116Z,1.90
2023-04-03T07:18:00.041Z,1.50
2023-04-03T07:20:27.548Z,1.70
2023-04-03T07:22:55.016Z,1.87
2023-04-03T07:25:22.720Z,1.50
2023-04-03T07:27:50.187Z,1.70
2023-04-03T07:30:17.650Z,1.40
2023-04-03T07:32:45.215Z,1.20
2023-04-03T08:37:24.087Z,1.57
2023-04-03T08:39:51.508Z,1.60
2023-04-03T08:42:21.813Z,1.27
2023-04-03T08:44:54.210Z,1.43
2023-04-03T09:01:43.436Z,1.30
2023-04-03T09:04:13.022Z,1.40
2023-04-03T09:06:40.628Z,1.47
2023-04-03T09:09:14.297Z,1.20
2023-04-03T09:11:46.502Z,1.00
2023-04-03T09:14:18.372Z,1.30
2023-04-03T09:16:49.989Z,1.10
2023-04-03T09:19:23.141Z,1.30
2023-04-03T09:21:50.573Z,1.30
2023-04-03T09:24:19.011Z,1.20
2023-04-03T09:26:48.134Z,1.03
2023-04-03T09:29:18.085Z,1.73
2023-04-03T09:31:47.587Z,1.20
2023-04-03T09:34:19.766Z,1.33
2023-04-03T09:36:48.678Z,1.20
2023-04-03T09:39:17.333Z,1.23
2023-04-03T09:41:56.453Z,1.33
2023-04-03T09:44:24.836Z,1.23
2023-04-03T09:46:53.862Z,1.40
2023-04-03T09:49:22.043Z,2.57
2023-04-03T09:51:50.150Z,1.30
2023-04-03T09:54:34.615Z,0.90
2023-04-03T09:57:03.947Z,1.40
2023-04-03T09:59:32.978Z,1.17
2023-04-03T10:02:03.953Z,1.20
2023-04-03T10:04:40.401Z,1.00
2023-04-03T10:07:28.480Z,1.13
2023-04-03T10:09:56.985Z,0.90
2023-04-03T10:12:24.457Z,0.80
2023-04-03T10:14:56.433Z,0.80
2023-04-03T10:17:29.137Z,1.03
2023-04-03T10:19:59.167Z,0.90
2023-04-03T10:22:31.328Z,0.90
2023-04-03T10:25:03.898Z,1.10
2023-04-03T10:27:36.876Z,1.00
2023-04-03T10:30:11.950Z,0.90
2023-04-03T10:32:49.902Z,1.10
2023-04-03T10:35:21.314Z,1.00
2023-04-03T10:37:55.828Z,0.90
2023-04-03T10:40:32.125Z,1.00
2023-04-03T10:43:04.632Z,0.90
2023-04-03T10:45:34.015Z,1.80
2023-04-03T10:48:06.125Z,0.93
2023-04-03T10:50:40.067Z,1.00
2023-04-03T10:53:10.724Z,0.70
2023-04-03T10:55:40.451Z,1.47
2023-04-03T10:58:08.628Z,0.97
2023-04-03T11:00:39.247Z,0.80
2023-04-03T11:03:12.800Z,0.90
2023-04-03T11:05:42.901Z,0.80
2023-04-03T11:08:13.527Z,1.10
2023-04-03T11:10:43.816Z,0.80
2023-04-03T11:13:14.403Z,0.90
2023-04-03T11:15:42.102Z,0.83
2023-04-03T11:18:13.121Z,1.03
2023-04-03T11:20:42.765Z,1.50
2023-04-03T11:23:15.225Z,1.20
2023-04-03T11:25:45.847Z,1.00
2023-04-03T11:28:14.482Z,1.00
2023-04-03T11:30:44.957Z,0.90
2023-04-03T11:33:30.547Z,1.00
2023-04-03T11:35:59.297Z,1.00
2023-04-03T11:38:30.324Z,0.90
2023-04-03T11:40:58.656Z,0.70
2023-04-03T11:43:27.981Z,0.90
2023-04-03T11:45:56.730Z,0.83
2023-04-03T11:48:43.175Z,1.20
2023-04-03T11:51:25.776Z,0.90
2023-04-03T11:53:54.599Z,1.00
2023-04-03T11:56:34.334Z,1.10
2023-04-03T11:59:19.309Z,0.93
2023-04-03T12:01:48.196Z,1.10
2023-04-03T12:04:16.769Z,0.80
2023-04-03T12:07:05.265Z,0.80
2023-04-03T12:10:03.472Z,0.90
2023-04-03T12:12:33.529Z,1.40
2023-04-03T12:15:19.671Z,1.30
2023-04-03T12:17:47.994Z,0.77
2023-04-03T12:20:34.550Z,0.90
2023-04-03T12:23:25.103Z,0.80
2023-04-03T12:25:53.644Z,0.80
2023-04-03T12:28:26.408Z,1.00
2023-04-03T12:30:53.876Z,0.90
2023-04-03T12:33:25.729Z,1.10
2023-04-03T12:36:01.263Z,0.97
2023-04-03T12:38:43.257Z,1.37
2023-04-03T12:41:19.446Z,1.10
2023-04-03T12:43:52.760Z,1.00
2023-04-03T12:46:21.176Z,0.87
2023-04-03T12:48:51.291Z,1.10
2023-04-03T12:51:20.696Z,1.00
2023-04-03T12:53:49.584Z,1.00
2023-04-03T12:56:24.768Z,1.00
2023-04-03T12:58:54.192Z,1.00
2023-04-03T13:01:23.832Z,0.90
2023-04-03T13:03:53.912Z,1.00
2023-04-03T13:06:23.286Z,0.97
2023-04-03T13:08:51.361Z,1.00
2023-04-03T13:11:19.865Z,1.20
2023-04-03T13:13:57.264Z,1.07
2023-04-03T13:16:24.772Z,0.90
2023-04-03T13:18:53.299Z,0.90
2023-04-03T13:21:22.013Z,0.97
2023-04-03T13:23:55.141Z,0.87
2023-04-03T13:26:27.282Z,0.90
2023-04-03T13:28:55.291Z,0.90
2023-04-03T13:31:27.251Z,1.03
2023-04-03T13:33:56.656Z,1.00
2023-04-03T13:36:25.169Z,0.97
2023-04-03T13:39:00.042Z,1.00
2023-04-03T13:41:31.175Z,1.10
2023-04-03T13:44:06.797Z,1.10
2023-04-03T13:46:41.215Z,1.20
2023-04-03T13:49:19.453Z,1.30
2023-04-03T13:51:51.706Z,0.90
2023-04-03T13:54:31.342Z,1.57
2023-04-03T13:57:00.652Z,1.00
2023-04-03T13:59:29.864Z,1.10
2023-04-03T14:02:12.413Z,0.97
2023-04-03T14:04:47.984Z,1.20
2023-04-03T14:07:16.854Z,1.23
2023-04-03T14:09:44.998Z,0.90
2023-04-03T14:12:30.244Z,1.17
2023-04-03T14:14:59.467Z,1.20
2023-04-03T14:17:28.692Z,1.20
2023-04-03T14:19:57.505Z,1.30
2023-04-03T14:22:25.950Z,1.40
2023-04-03T14:24:53.775Z,1.40
2023-04-03T14:27:22.761Z,1.40
2023-04-03T14:29:50.566Z,1.30
2023-04-03T14:32:18.613Z,1.27
2023-04-03T14:34:48.174Z,1.60
2023-04-03T14:37:18.394Z,1.03
2023-04-03T14:39:46.895Z,1.00
2023-04-03T14:42:15.028Z,1.30
2023-04-03T14:44:42.442Z,1.40
2023-04-03T14:47:17.061Z,1.20
2023-04-03T14:49:52.306Z,1.17
2023-04-03T14:52:21.354Z,1.00
2023-04-03T14:54:48.858Z,1.33
2023-04-03T14:57:17.184Z,1.10
2023-04-03T14:59:45.016Z,1.20
2023-04-03T15:02:23.026Z,0.93
2023-04-03T15:04:53.335Z,1.17
2023-04-03T15:07:21.021Z,1.20
2023-04-03T15:09:48.379Z,1.37
2023-04-03T15:12:15.871Z,1.20
2023-04-03T15:14:51.870Z,0.90
2023-04-03T15:17:25.388Z,1.10
2023-04-03T15:19:54.141Z,1.10
2023-04-03T15:22:21.739Z,0.93
2023-04-03T15:24:49.176Z,1.30
2023-04-03T15:27:17.642Z,1.00
2023-04-03T15:29:45.470Z,1.20
2023-04-03T15:32:13.847Z,1.10
2023-04-03T15:34:41.601Z,1.27
2023-04-03T15:37:10.807Z,0.90
2023-04-03T15:39:38.223Z,1.07
2023-04-03T15:42:07.220Z,1.10
2023-04-03T15:44:35.557Z,2.60
2023-04-03T15:47:03.845Z,0.90
2023-04-03T15:49:31.923Z,1.33
2023-04-03T15:51:59.379Z,1.30
2023-04-03T15:54:30.378Z,1.20
2023-04-03T15:56:58.200Z,1.30
2023-04-03T15:59:25.909Z,1.20
2023-04-03T16:01:54.055Z,0.93
2023-04-03T16:04:22.554Z,1.20
2023-04-03T16:06:50.223Z,1.10
2023-04-03T16:09:17.852Z,1.20
2023-04-03T16:11:46.632Z,1.20
2023-04-03T16:14:14.134Z,1.30
2023-04-03T16:16:41.684Z,0.97
2023-04-03T16:19:09.217Z,1.43
2023-04-03T16:21:36.649Z,1.50
2023-04-03T16:24:04.185Z,0.90
2023-04-03T16:26:31.663Z,1.30
2023-04-03T16:29:00.458Z,1.77
2023-04-03T16:31:28.270Z,1.07
2023-04-03T16:33:56.649Z,1.10
2023-04-03T16:36:24.253Z,1.17
2023-04-03T16:38:51.980Z,1.30
2023-04-03T16:41:19.396Z,1.50
2023-04-03T16:43:46.917Z,1.10
2023-04-03T16:46:15.911Z,1.20
2023-04-03T16:48:43.474Z,1.10
2023-04-03T16:51:11.062Z,1.30
2023-04-03T16:53:39.751Z,1.03
2023-04-03T16:56:07.532Z,1.20
2023-04-03T16:58:35.033Z,1.20
2023-04-03T17:01:10.230Z,1.20
2023-04-03T17:03:39.215Z,1.00
2023-04-03T17:06:06.804Z,1.20
2023-04-03T17:08:34.245Z,1.10
2023-04-03T17:11:01.812Z,0.97
2023-04-03T17:13:32.973Z,1.17
2023-04-03T17:16:00.696Z,1.07
2023-04-03T17:18:28.796Z,1.20
2023-04-03T17:20:58.406Z,1.40
2023-04-03T17:23:26.130Z,1.10
2023-04-03T17:25:55.028Z,1.00
2023-04-03T17:28:28.070Z,1.07
2023-04-03T17:30:55.618Z,1.30
2023-04-03T17:33:23.215Z,1.17
2023-04-03T17:35:50.715Z,1.37
2023-04-03T17:38:19.554Z,1.07
2023-04-03T17:40:47.415Z,1.27
2023-04-03T17:43:14.908Z,1.30
2023-04-03T17:45:42.494Z,1.13
2023-04-03T17:48:10.244Z,1.33
2023-04-03T17:50:38.382Z,1.30
2023-04-03T17:53:05.868Z,1.13
2023-04-03T17:55:34.741Z,1.30
2023-04-03T17:58:02.400Z,1.30
2023-04-03T18:00:29.860Z,1.40
2023-04-03T18:02:57.418Z,1.40
2023-04-03T18:05:27.904Z,1.27
2023-04-03T18:07:55.394Z,1.13
2023-04-03T18:10:22.972Z,1.20
2023-04-03T18:12:52.939Z,1.50
2023-04-03T18:15:20.589Z,1.30
2023-04-03T18:17:50.392Z,1.27
2023-04-03T18:20:17.944Z,1.60
2023-04-03T18:22:45.876Z,1.30
2023-04-03T18:25:14.242Z,1.13
2023-04-03T18:27:42.078Z,1.13
2023-04-03T18:32:59.846Z,1.17
2023-04-03T18:35:27.488Z,1.20
2023-04-03T18:37:54.936Z,1.20
2023-04-03T18:40:22.475Z,1.60
2023-04-03T18:42:50.033Z,1.40
2023-04-03T18:45:21.054Z,1.20
2023-04-03T18:50:23.612Z,1.40
2023-04-03T18:52:51.041Z,1.47
2023-04-03T18:55:19.369Z,1.37
2023-04-03T18:57:46.891Z,1.23
2023-04-03T19:00:14.905Z,1.70
2023-04-03T19:02:44.027Z,1.20
2023-04-03T19:05:13.277Z,1.50
2023-04-03T19:07:41.905Z,1.50
2023-04-03T19:10:14.282Z,1.50
2023-04-03T19:12:41.786Z,1.60
2023-04-03T19:15:09.412Z,1.47
2023-04-03T19:17:37.156Z,1.57
2023-04-03T19:20:06.402Z,2.10
2023-04-03T19:22:33.901Z,1.23
2023-04-03T19:25:01.397Z,1.47
2023-04-03T19:27:29.229Z,1.40
2023-04-03T19:29:56.889Z,1.67
2023-04-03T19:32:24.595Z,1.50
2023-04-03T19:34:52.127Z,1.40
2023-04-03T19:37:20.895Z,1.30
2023-04-03T19:39:48.283Z,1.30
2023-04-03T19:42:15.864Z,1.40
2023-04-03T19:44:43.787Z,1.50
2023-04-03T19:47:11.949Z,1.30
2023-04-03T19:49:39.378Z,1.40
2023-04-03T19:52:06.858Z,1.20
2023-04-03T19:54:35.880Z,1.37
2023-04-03T19:57:03.368Z,1.50
2023-04-03T19:59:30.893Z,1.40
2023-04-03T20:01:58.565Z,1.43
2023-04-03T20:04:26.172Z,1.40
2023-04-03T20:06:53.740Z,1.50
2023-04-03T20:09:22.189Z,1.90
2023-04-03T20:11:52.547Z,1.50
2023-04-03T20:14:21.168Z,1.30
2023-04-03T20:16:48.764Z,1.40
2023-04-03T20:19:16.881Z,1.33
2023-04-03T20:21:44.454Z,1.30
2023-04-03T20:24:13.902Z,1.67
2023-04-03T20:26:46.296Z,1.27
2023-04-03T20:29:16.625Z,1.40
2023-04-03T20:31:44.316Z,1.60
2023-04-03T20:34:11.798Z,1.40
2023-04-03T20:36:39.394Z,1.60
2023-04-03T20:39:07.369Z,1.80
2023-04-03T20:41:37.425Z,1.70
2023-04-03T20:44:05.613Z,1.60
2023-04-03T20:46:51.340Z,1.60
2023-04-03T20:49:19.733Z,1.80
2023-04-03T20:51:47.154Z,2.13
2023-04-03T20:54:14.704Z,1.40
2023-04-03T20:56:42.669Z,1.50
2023-04-03T20:59:10.750Z,1.40
2023-04-03T21:01:39.782Z,1.40
2023-04-03T21:04:09.547Z,1.63
2023-04-03T21:06:56.497Z,1.60
2023-04-03T21:09:42.745Z,1.40
2023-04-03T21:12:28.763Z,1.77
2023-04-03T21:15:15.017Z,1.67
2023-04-03T21:17:59.642Z,1.70
2023-04-03T21:20:27.191Z,1.50
2023-04-03T21:22:54.891Z,1.67
2023-04-03T21:25:22.351Z,1.50
2023-04-03T21:27:49.835Z,1.50
2023-04-03T21:30:17.709Z,1.40
2023-04-03T21:32:46.811Z,1.60
2023-04-03T21:35:14.682Z,1.43
2023-04-03T21:37:42.135Z,1.70
2023-04-03T21:40:10.445Z,1.70
2023-04-03T21:42:37.996Z,1.20
2023-04-03T21:45:06.024Z,1.90
2023-04-03T21:47:35.605Z,2.10
2023-04-03T21:50:04.811Z,1.70
2023-04-03T21:52:32.638Z,1.67
2023-04-03T21:55:00.019Z,1.63
2023-04-03T21:57:27.425Z,1.73
2023-04-03T21:59:55.033Z,1.70
2023-04-03T22:02:22.715Z,1.60
2023-04-03T22:04:50.312Z,1.90
2023-04-03T22:07:19.707Z,1.97
2023-04-03T22:09:47.322Z,1.60
2023-04-03T22:12:14.730Z,2.17
2023-04-03T22:14:42.754Z,1.90
2023-04-03T22:17:10.318Z,1.80
2023-04-03T22:19:37.994Z,1.83
2023-04-03T22:22:05.465Z,2.00
2023-04-03T22:24:34.415Z,1.67
2023-04-03T22:27:01.957Z,1.70
2023-04-03T22:29:29.409Z,1.70
2023-04-03T22:31:56.994Z,1.90
2023-04-03T22:34:24.519Z,1.80
2023-04-03T22:36:53.839Z,1.80
2023-04-03T22:39:22.269Z,2.33
2023-04-03T22:41:52.495Z,1.80
2023-04-03T22:44:20.004Z,2.00
2023-04-03T22:46:47.589Z,1.73
2023-04-03T22:49:15.204Z,2.00
2023-04-03T22:51:42.796Z,2.20
2023-04-03T22:54:10.408Z,2.20
2023-04-03T22:56:38.040Z,2.70
2023-04-03T22:59:07.235Z,2.10
2023-04-03T23:01:36.109Z,2.80
2023-04-03T23:04:05.761Z,3.30
2023-04-03T23:06:33.176Z,3.40
2023-04-03T23:09:01.437Z,3.80
2023-04-03T23:11:29.216Z,3.60
2023-04-03T23:13:56.615Z,3.70
2023-04-03T23:16:25.382Z,4.10
2023-04-03T23:18:52.991Z,3.83
2023-04-03T23:21:20.576Z,4.40
2023-04-03T23:23:48.409Z,4.60
2023-04-03T23:26:15.864Z,3.90
2023-04-03T23:28:43.288Z,4.37
2023-04-03T23:31:11.350Z,3.80
2023-04-03T23:33:44.016Z,4.33
2023-04-03T23:36:12.848Z,3.60
2023-04-03T23:38:40.319Z,3.60
2023-04-03T23:41:07.734Z,3.80
2023-04-03T23:43:35.279Z,3.70
2023-04-03T23:46:02.931Z,3.67
2023-04-03T23:48:30.394Z,3.33
2023-04-03T23:50:59.217Z,2.87
2023-04-03T23:53:27.231Z,2.70
2023-04-03T23:55:54.716Z,2.70
2023-04-03T23:58:22.202Z,2.40
